Portada
METAR-TAF:

METAR-TAF

Aeroports :

Fourchambault

Nevers, França

latitud: 47-00N, longitud: 003-06E, altitud: 180 m

Observació

L'informe es va fer fa 40 minuts, a les 15:30 UTC
Vent 4 kt del Est/Sud-Est
Temperatura 5°C
Humitat 87%
Pressió 1025 hPa
Visibilitat 10 km o més
sense núvols per sota de 1500 mi sense presència de cumulonimbus.

METAR: LFQG 101530Z AUTO 12004KT CAVOK 05/03 Q1025

Hora: 17:10 (16:10 UTC)


TAF: manca

Observacions i pronòstics meteorològics de més de 4000 aeroports (METAR i TAF).

Les estacions disponibles són els punts grocs i vermells al mapa.

Posi el ratolí al punt desitjat per veure el nom de l'estació.

Feu clic per veure les observacions i els pronòstics meteorològics.

Per canviar el mapa: feu clic els botons verds amb una creu de color negre per apropar; al botó verd amb un guió per allunyar la imatge; o en les fletxes verdes per a mapes adjacents.


METAR-TAF: